Weather at Victoria River Downs Airport

Public forecast

Using degrees Celsius for public forecast. Weather courtesy of forecast.io.

Closest aviation weather report (METAR) to Victoria River Downs Airport

Closest report is Kununurra Airport, 137.7 nm (255.0 km) WNW. Retrieved 2021/04/12 13:00 UTC (22 minutes ago):

YPKU 121300Z AUTO 00000KT 9999 // NCD 26/23 Q1011

Closest aviation forecast (TAF) to Victoria River Downs Airport

Closest forecast is Kununurra Airport, 137.7 nm (255.0 km) WNW. Retrieved 2021/04/12 14:00 UTC (0 seconds ago):

TAF YPKU 121245Z 1214/1302 VRB03KT CAVOK